sensor_id;sensor_type;location;lat;lon;timestamp;P1;durP1;ratioP1;P2;durP2;ratioP2
43042;SDS011;28667;50.758;6.096;2022-08-04T00:02:04;1.75;;;0.50;;
43042;SDS011;28667;50.758;6.096;2022-08-04T00:04:52;0.70;;;0.60;;
43042;SDS011;28667;50.758;6.096;2022-08-04T00:10:07;1.35;;;0.55;;
43042;SDS011;28667;50.758;6.096;2022-08-04T00:12:35;2.50;;;0.57;;
43042;SDS011;28667;50.758;6.096;2022-08-04T00:15:07;0.60;;;0.40;;
43042;SDS011;28667;50.758;6.096;2022-08-04T00:17:39;0.60;;;0.45;;
43042;SDS011;28667;50.758;6.096;2022-08-04T00:20:11;1.15;;;0.35;;
43042;SDS011;28667;50.758;6.096;2022-08-04T00:22:41;0.45;;;0.40;;
43042;SDS011;28667;50.758;6.096;2022-08-04T00:25:10;0.88;;;0.68;;
43042;SDS011;28667;50.758;6.096;2022-08-04T00:27:37;0.55;;;0.40;;
43042;SDS011;28667;50.758;6.096;2022-08-04T00:30:04;0.52;;;0.35;;
43042;SDS011;28667;50.758;6.096;2022-08-04T00:32:31;0.45;;;0.45;;
43042;SDS011;28667;50.758;6.096;2022-08-04T00:34:58;0.60;;;0.40;;
43042;SDS011;28667;50.758;6.096;2022-08-04T00:37:24;0.60;;;0.30;;
43042;SDS011;28667;50.758;6.096;2022-08-04T00:39:54;0.52;;;0.52;;
43042;SDS011;28667;50.758;6.096;2022-08-04T00:45:35;0.20;;;0.20;;
43042;SDS011;28667;50.758;6.096;2022-08-04T00:54:26;0.95;;;0.40;;
43042;SDS011;28667;50.758;6.096;2022-08-04T01:11:12;1.17;;;0.55;;
43042;SDS011;28667;50.758;6.096;2022-08-04T01:16:53;1.75;;;0.40;;
43042;SDS011;28667;50.758;6.096;2022-08-04T01:19:52;0.38;;;0.38;;
43042;SDS011;28667;50.758;6.096;2022-08-04T01:30:01;1.70;;;0.40;;
43042;SDS011;28667;50.758;6.096;2022-08-04T01:32:33;2.15;;;0.70;;
43042;SDS011;28667;50.758;6.096;2022-08-04T01:35:04;1.13;;;0.85;;
43042;SDS011;28667;50.758;6.096;2022-08-04T01:40:05;1.35;;;0.50;;
43042;SDS011;28667;50.758;6.096;2022-08-04T01:42:33;0.55;;;0.40;;
43042;SDS011;28667;50.758;6.096;2022-08-04T01:45:02;0.90;;;0.50;;
43042;SDS011;28667;50.758;6.096;2022-08-04T01:47:30;4.47;;;0.60;;
43042;SDS011;28667;50.758;6.096;2022-08-04T01:50:12;2.55;;;0.95;;
43042;SDS011;28667;50.758;6.096;2022-08-04T01:52:40;0.45;;;0.40;;
43042;SDS011;28667;50.758;6.096;2022-08-04T01:55:08;1.25;;;0.50;;
43042;SDS011;28667;50.758;6.096;2022-08-04T01:57:36;1.30;;;0.50;;
43042;SDS011;28667;50.758;6.096;2022-08-04T02:00:08;1.75;;;0.80;;
43042;SDS011;28667;50.758;6.096;2022-08-04T02:02:37;1.23;;;0.50;;
43042;SDS011;28667;50.758;6.096;2022-08-04T02:05:03;1.00;;;0.65;;
43042;SDS011;28667;50.758;6.096;2022-08-04T02:07:43;0.50;;;0.50;;
43042;SDS011;28667;50.758;6.096;2022-08-04T02:13:20;1.35;;;0.50;;
43042;SDS011;28667;50.758;6.096;2022-08-04T02:21:18;0.47;;;0.47;;
43042;SDS011;28667;50.758;6.096;2022-08-04T02:23:46;2.15;;;0.50;;
43042;SDS011;28667;50.758;6.096;2022-08-04T02:26:19;1.40;;;0.73;;
43042;SDS011;28667;50.758;6.096;2022-08-04T02:28:46;0.75;;;0.60;;
43042;SDS011;28667;50.758;6.096;2022-08-04T02:33:57;1.38;;;0.75;;
43042;SDS011;28667;50.758;6.096;2022-08-04T02:36:28;2.42;;;1.10;;
43042;SDS011;28667;50.758;6.096;2022-08-04T02:38:59;1.38;;;0.60;;
43042;SDS011;28667;50.758;6.096;2022-08-04T02:41:28;0.57;;;0.40;;
43042;SDS011;28667;50.758;6.096;2022-08-04T02:43:56;1.73;;;0.50;;
43042;SDS011;28667;50.758;6.096;2022-08-04T02:46:27;1.10;;;0.70;;
43042;SDS011;28667;50.758;6.096;2022-08-04T02:48:55;0.50;;;0.40;;
43042;SDS011;28667;50.758;6.096;2022-08-04T02:51:23;1.98;;;0.88;;
43042;SDS011;28667;50.758;6.096;2022-08-04T02:53:55;2.08;;;0.68;;
43042;SDS011;28667;50.758;6.096;2022-08-04T02:56:24;0.88;;;0.43;;
43042;SDS011;28667;50.758;6.096;2022-08-04T02:59:13;2.30;;;0.85;;
43042;SDS011;28667;50.758;6.096;2022-08-04T03:01:40;0.47;;;0.47;;
43042;SDS011;28667;50.758;6.096;2022-08-04T03:04:26;0.88;;;0.55;;
43042;SDS011;28667;50.758;6.096;2022-08-04T03:07:19;0.47;;;0.43;;
43042;SDS011;28667;50.758;6.096;2022-08-04T03:31:07;0.70;;;0.70;;
43042;SDS011;28667;50.758;6.096;2022-08-04T03:36:45;1.10;;;0.60;;
43042;SDS011;28667;50.758;6.096;2022-08-04T03:43:02;0.82;;;0.60;;
43042;SDS011;28667;50.758;6.096;2022-08-04T03:45:37;2.00;;;0.77;;
43042;SDS011;28667;50.758;6.096;2022-08-04T03:51:08;1.52;;;0.77;;
43042;SDS011;28667;50.758;6.096;2022-08-04T03:56:42;1.02;;;0.60;;
43042;SDS011;28667;50.758;6.096;2022-08-04T04:10:51;1.90;;;1.15;;
43042;SDS011;28667;50.758;6.096;2022-08-04T04:13:49;0.55;;;0.55;;
43042;SDS011;28667;50.758;6.096;2022-08-04T04:22:08;2.15;;;0.70;;
43042;SDS011;28667;50.758;6.096;2022-08-04T04:25:01;2.40;;;1.15;;
43042;SDS011;28667;50.758;6.096;2022-08-04T04:39:02;1.85;;;0.60;;
43042;SDS011;28667;50.758;6.096;2022-08-04T04:50:46;1.75;;;0.77;;
43042;SDS011;28667;50.758;6.096;2022-08-04T04:59:18;1.13;;;0.63;;
43042;SDS011;28667;50.758;6.096;2022-08-04T05:01:53;1.35;;;0.82;;
43042;SDS011;28667;50.758;6.096;2022-08-04T05:04:48;1.17;;;1.00;;
43042;SDS011;28667;50.758;6.096;2022-08-04T05:07:52;0.93;;;0.80;;
43042;SDS011;28667;50.758;6.096;2022-08-04T05:13:37;0.95;;;0.50;;
43042;SDS011;28667;50.758;6.096;2022-08-04T05:18:41;1.73;;;0.82;;
43042;SDS011;28667;50.758;6.096;2022-08-04T05:23:46;4.57;;;1.00;;
43042;SDS011;28667;50.758;6.096;2022-08-04T05:26:17;1.10;;;0.70;;
43042;SDS011;28667;50.758;6.096;2022-08-04T05:28:50;1.27;;;0.82;;
43042;SDS011;28667;50.758;6.096;2022-08-04T05:31:35;0.60;;;0.60;;
43042;SDS011;28667;50.758;6.096;2022-08-04T05:34:06;0.80;;;0.63;;
43042;SDS011;28667;50.758;6.096;2022-08-04T05:36:39;1.10;;;0.65;;
43042;SDS011;28667;50.758;6.096;2022-08-04T05:39:21;2.95;;;1.13;;
43042;SDS011;28667;50.758;6.096;2022-08-04T05:42:07;2.13;;;0.80;;
43042;SDS011;28667;50.758;6.096;2022-08-04T05:44:35;1.98;;;0.70;;
43042;SDS011;28667;50.758;6.096;2022-08-04T05:47:03;1.05;;;0.90;;
43042;SDS011;28667;50.758;6.096;2022-08-04T05:49:31;1.40;;;0.85;;
43042;SDS011;28667;50.758;6.096;2022-08-04T05:51:59;0.70;;;0.70;;
43042;SDS011;28667;50.758;6.096;2022-08-04T05:54:27;0.93;;;0.90;;
43042;SDS011;28667;50.758;6.096;2022-08-04T05:56:55;3.55;;;0.88;;
43042;SDS011;28667;50.758;6.096;2022-08-04T05:59:22;0.90;;;0.90;;
43042;SDS011;28667;50.758;6.096;2022-08-04T06:01:50;3.05;;;1.00;;
43042;SDS011;28667;50.758;6.096;2022-08-04T06:04:20;0.90;;;0.90;;
43042;SDS011;28667;50.758;6.096;2022-08-04T06:06:49;0.80;;;0.80;;
43042;SDS011;28667;50.758;6.096;2022-08-04T06:09:17;1.63;;;0.70;;
43042;SDS011;28667;50.758;6.096;2022-08-04T06:11:44;2.63;;;0.70;;
43042;SDS011;28667;50.758;6.096;2022-08-04T06:14:12;0.80;;;0.80;;
43042;SDS011;28667;50.758;6.096;2022-08-04T06:16:40;0.70;;;0.70;;
43042;SDS011;28667;50.758;6.096;2022-08-04T06:19:12;0.65;;;0.65;;
43042;SDS011;28667;50.758;6.096;2022-08-04T06:21:43;0.73;;;0.73;;
43042;SDS011;28667;50.758;6.096;2022-08-04T06:24:14;0.80;;;0.80;;
43042;SDS011;28667;50.758;6.096;2022-08-04T06:26:44;0.65;;;0.60;;
43042;SDS011;28667;50.758;6.096;2022-08-04T06:29:13;1.88;;;0.80;;
43042;SDS011;28667;50.758;6.096;2022-08-04T06:31:48;1.83;;;0.88;;
43042;SDS011;28667;50.758;6.096;2022-08-04T06:34:26;1.08;;;0.98;;
43042;SDS011;28667;50.758;6.096;2022-08-04T06:36:54;1.02;;;0.65;;
43042;SDS011;28667;50.758;6.096;2022-08-04T06:39:22;1.10;;;0.88;;
43042;SDS011;28667;50.758;6.096;2022-08-04T06:41:51;0.77;;;0.77;;
43042;SDS011;28667;50.758;6.096;2022-08-04T06:44:19;1.10;;;0.80;;
43042;SDS011;28667;50.758;6.096;2022-08-04T06:46:46;2.47;;;0.70;;
43042;SDS011;28667;50.758;6.096;2022-08-04T06:49:14;0.50;;;0.50;;
43042;SDS011;28667;50.758;6.096;2022-08-04T06:51:43;0.63;;;0.50;;
43042;SDS011;28667;50.758;6.096;2022-08-04T06:54:10;0.80;;;0.63;;
43042;SDS011;28667;50.758;6.096;2022-08-04T06:56:36;0.90;;;0.60;;
43042;SDS011;28667;50.758;6.096;2022-08-04T06:59:05;0.88;;;0.60;;
43042;SDS011;28667;50.758;6.096;2022-08-04T07:01:31;0.80;;;0.80;;
43042;SDS011;28667;50.758;6.096;2022-08-04T07:04:01;0.82;;;0.60;;
43042;SDS011;28667;50.758;6.096;2022-08-04T07:06:28;0.82;;;0.82;;
43042;SDS011;28667;50.758;6.096;2022-08-04T07:08:55;0.93;;;0.77;;
43042;SDS011;28667;50.758;6.096;2022-08-04T07:11:21;1.02;;;0.93;;
43042;SDS011;28667;50.758;6.096;2022-08-04T07:13:49;0.85;;;0.77;;
43042;SDS011;28667;50.758;6.096;2022-08-04T07:16:15;1.10;;;1.00;;
43042;SDS011;28667;50.758;6.096;2022-08-04T07:18:43;0.60;;;0.60;;
43042;SDS011;28667;50.758;6.096;2022-08-04T07:21:09;0.55;;;0.55;;
43042;SDS011;28667;50.758;6.096;2022-08-04T07:23:42;0.60;;;0.60;;
43042;SDS011;28667;50.758;6.096;2022-08-04T07:26:10;0.63;;;0.63;;
43042;SDS011;28667;50.758;6.096;2022-08-04T07:28:36;3.33;;;0.60;;
43042;SDS011;28667;50.758;6.096;2022-08-04T07:31:04;0.70;;;0.70;;
43042;SDS011;28667;50.758;6.096;2022-08-04T07:33:33;1.00;;;0.68;;
43042;SDS011;28667;50.758;6.096;2022-08-04T07:36:00;1.05;;;0.98;;
43042;SDS011;28667;50.758;6.096;2022-08-04T07:38:26;0.50;;;0.50;;
43042;SDS011;28667;50.758;6.096;2022-08-04T07:40:53;4.70;;;0.88;;
43042;SDS011;28667;50.758;6.096;2022-08-04T07:43:20;0.63;;;0.43;;
43042;SDS011;28667;50.758;6.096;2022-08-04T07:45:47;1.35;;;1.25;;
43042;SDS011;28667;50.758;6.096;2022-08-04T07:48:13;0.60;;;0.60;;
43042;SDS011;28667;50.758;6.096;2022-08-04T07:50:41;0.70;;;0.70;;
43042;SDS011;28667;50.758;6.096;2022-08-04T07:53:08;1.48;;;0.63;;
43042;SDS011;28667;50.758;6.096;2022-08-04T07:55:37;3.83;;;0.77;;
43042;SDS011;28667;50.758;6.096;2022-08-04T07:58:04;2.58;;;0.70;;
43042;SDS011;28667;50.758;6.096;2022-08-04T08:00:30;0.82;;;0.82;;
43042;SDS011;28667;50.758;6.096;2022-08-04T08:02:57;1.80;;;0.65;;
43042;SDS011;28667;50.758;6.096;2022-08-04T08:05:24;1.05;;;0.60;;
43042;SDS011;28667;50.758;6.096;2022-08-04T08:07:51;0.50;;;0.47;;
43042;SDS011;28667;50.758;6.096;2022-08-04T08:10:17;1.35;;;0.60;;
43042;SDS011;28667;50.758;6.096;2022-08-04T08:12:43;0.47;;;0.47;;
43042;SDS011;28667;50.758;6.096;2022-08-04T08:15:10;2.13;;;0.73;;
43042;SDS011;28667;50.758;6.096;2022-08-04T08:17:37;1.52;;;0.65;;
43042;SDS011;28667;50.758;6.096;2022-08-04T08:20:04;0.50;;;0.43;;
43042;SDS011;28667;50.758;6.096;2022-08-04T08:22:32;1.17;;;0.80;;
43042;SDS011;28667;50.758;6.096;2022-08-04T08:24:58;0.55;;;0.55;;
43042;SDS011;28667;50.758;6.096;2022-08-04T08:27:25;0.60;;;0.60;;
43042;SDS011;28667;50.758;6.096;2022-08-04T08:29:51;1.65;;;0.60;;
43042;SDS011;28667;50.758;6.096;2022-08-04T08:32:17;0.82;;;0.65;;
43042;SDS011;28667;50.758;6.096;2022-08-04T08:34:45;2.05;;;1.08;;
43042;SDS011;28667;50.758;6.096;2022-08-04T08:39:54;0.82;;;0.73;;
43042;SDS011;28667;50.758;6.096;2022-08-04T08:45:30;1.05;;;0.88;;
43042;SDS011;28667;50.758;6.096;2022-08-04T08:57:33;4.05;;;1.00;;
43042;SDS011;28667;50.758;6.096;2022-08-04T09:00:10;4.07;;;0.93;;
43042;SDS011;28667;50.758;6.096;2022-08-04T09:06:08;0.85;;;0.73;;
43042;SDS011;28667;50.758;6.096;2022-08-04T09:08:41;0.93;;;0.63;;
43042;SDS011;28667;50.758;6.096;2022-08-04T09:11:39;0.60;;;0.60;;
43042;SDS011;28667;50.758;6.096;2022-08-04T09:14:16;1.17;;;1.08;;
43042;SDS011;28667;50.758;6.096;2022-08-04T09:16:51;2.08;;;0.90;;
43042;SDS011;28667;50.758;6.096;2022-08-04T09:19:32;2.95;;;0.77;;
43042;SDS011;28667;50.758;6.096;2022-08-04T09:22:03;1.45;;;0.90;;
43042;SDS011;28667;50.758;6.096;2022-08-04T09:24:44;1.35;;;0.80;;
43042;SDS011;28667;50.758;6.096;2022-08-04T09:30:08;3.33;;;1.05;;
43042;SDS011;28667;50.758;6.096;2022-08-04T09:38:28;2.92;;;1.10;;
43042;SDS011;28667;50.758;6.096;2022-08-04T09:44:00;1.33;;;0.93;;
43042;SDS011;28667;50.758;6.096;2022-08-04T09:49:45;0.95;;;0.68;;
43042;SDS011;28667;50.758;6.096;2022-08-04T09:57:50;1.50;;;0.95;;
43042;SDS011;28667;50.758;6.096;2022-08-04T10:00:43;1.95;;;1.17;;
43042;SDS011;28667;50.758;6.096;2022-08-04T10:03:12;2.22;;;1.17;;
43042;SDS011;28667;50.758;6.096;2022-08-04T10:05:48;1.92;;;1.00;;
43042;SDS011;28667;50.758;6.096;2022-08-04T10:13:56;2.15;;;1.10;;
43042;SDS011;28667;50.758;6.096;2022-08-04T10:16:44;1.08;;;1.00;;
43042;SDS011;28667;50.758;6.096;2022-08-04T10:19:26;1.42;;;1.17;;
43042;SDS011;28667;50.758;6.096;2022-08-04T10:27:33;3.38;;;1.08;;
43042;SDS011;28667;50.758;6.096;2022-08-04T10:30:05;2.15;;;1.02;;
43042;SDS011;28667;50.758;6.096;2022-08-04T10:32:57;4.65;;;1.05;;
43042;SDS011;28667;50.758;6.096;2022-08-04T10:35:38;1.33;;;1.23;;
43042;SDS011;28667;50.758;6.096;2022-08-04T10:38:27;1.25;;;0.88;;
43042;SDS011;28667;50.758;6.096;2022-08-04T10:44:05;2.17;;;1.30;;
43042;SDS011;28667;50.758;6.096;2022-08-04T10:46:56;1.17;;;1.08;;
43042;SDS011;28667;50.758;6.096;2022-08-04T10:52:51;2.08;;;1.23;;
43042;SDS011;28667;50.758;6.096;2022-08-04T10:54:57;1.35;;;1.08;;
43042;SDS011;28667;50.758;6.096;2022-08-04T10:57:40;2.55;;;1.10;;
43042;SDS011;28667;50.758;6.096;2022-08-04T11:00:13;4.55;;;1.20;;
43042;SDS011;28667;50.758;6.096;2022-08-04T11:05:21;2.05;;;1.13;;
43042;SDS011;28667;50.758;6.096;2022-08-04T11:08:00;0.95;;;0.88;;
43042;SDS011;28667;50.758;6.096;2022-08-04T11:10:32;2.03;;;1.00;;
43042;SDS011;28667;50.758;6.096;2022-08-04T11:13:05;2.58;;;1.30;;
43042;SDS011;28667;50.758;6.096;2022-08-04T11:15:44;1.40;;;0.90;;
43042;SDS011;28667;50.758;6.096;2022-08-04T11:18:18;1.90;;;0.75;;
43042;SDS011;28667;50.758;6.096;2022-08-04T11:20:55;2.63;;;1.00;;
43042;SDS011;28667;50.758;6.096;2022-08-04T11:23:29;0.93;;;0.80;;
43042;SDS011;28667;50.758;6.096;2022-08-04T11:31:26;2.60;;;0.90;;
43042;SDS011;28667;50.758;6.096;2022-08-04T11:34:00;2.60;;;1.10;;
43042;SDS011;28667;50.758;6.096;2022-08-04T11:39:41;1.60;;;1.02;;
43042;SDS011;28667;50.758;6.096;2022-08-04T11:42:25;1.52;;;1.35;;
43042;SDS011;28667;50.758;6.096;2022-08-04T11:44:59;1.05;;;0.98;;
43042;SDS011;28667;50.758;6.096;2022-08-04T11:50:29;3.15;;;1.35;;
43042;SDS011;28667;50.758;6.096;2022-08-04T11:53:24;1.33;;;1.23;;
43042;SDS011;28667;50.758;6.096;2022-08-04T11:55:53;1.65;;;1.30;;
43042;SDS011;28667;50.758;6.096;2022-08-04T11:58:24;2.35;;;1.17;;
43042;SDS011;28667;50.758;6.096;2022-08-04T12:00:53;1.40;;;1.20;;
43042;SDS011;28667;50.758;6.096;2022-08-04T12:03:36;2.60;;;1.45;;
43042;SDS011;28667;50.758;6.096;2022-08-04T12:09:01;1.38;;;1.20;;
43042;SDS011;28667;50.758;6.096;2022-08-04T12:17:48;1.65;;;0.93;;
43042;SDS011;28667;50.758;6.096;2022-08-04T12:20:28;3.13;;;1.33;;
43042;SDS011;28667;50.758;6.096;2022-08-04T12:22:58;1.85;;;1.20;;
43042;SDS011;28667;50.758;6.096;2022-08-04T12:25:29;1.45;;;1.10;;
43042;SDS011;28667;50.758;6.096;2022-08-04T12:28:04;2.10;;;1.50;;
43042;SDS011;28667;50.758;6.096;2022-08-04T12:30:38;3.75;;;1.17;;
43042;SDS011;28667;50.758;6.096;2022-08-04T12:33:10;3.38;;;1.40;;
43042;SDS011;28667;50.758;6.096;2022-08-04T12:35:46;4.45;;;1.20;;
43042;SDS011;28667;50.758;6.096;2022-08-04T12:38:18;3.90;;;1.15;;
43042;SDS011;28667;50.758;6.096;2022-08-04T12:40:52;1.35;;;1.20;;
43042;SDS011;28667;50.758;6.096;2022-08-04T12:43:22;2.00;;;1.27;;
43042;SDS011;28667;50.758;6.096;2022-08-04T12:46:09;3.33;;;1.23;;
43042;SDS011;28667;50.758;6.096;2022-08-04T12:48:45;2.10;;;1.25;;
43042;SDS011;28667;50.758;6.096;2022-08-04T12:51:12;2.90;;;1.30;;
43042;SDS011;28667;50.758;6.096;2022-08-04T12:53:40;1.92;;;1.50;;
43042;SDS011;28667;50.758;6.096;2022-08-04T12:56:11;1.27;;;1.10;;
43042;SDS011;28667;50.758;6.096;2022-08-04T12:59:21;1.10;;;1.00;;
43042;SDS011;28667;50.758;6.096;2022-08-04T13:01:30;1.70;;;1.13;;
43042;SDS011;28667;50.758;6.096;2022-08-04T13:06:33;5.10;;;1.23;;
43042;SDS011;28667;50.758;6.096;2022-08-04T13:09:08;3.33;;;1.05;;
43042;SDS011;28667;50.758;6.096;2022-08-04T13:11:43;1.55;;;0.93;;
43042;SDS011;28667;50.758;6.096;2022-08-04T13:14:13;5.05;;;1.23;;
43042;SDS011;28667;50.758;6.096;2022-08-04T13:16:41;1.20;;;0.85;;
43042;SDS011;28667;50.758;6.096;2022-08-04T13:19:07;4.47;;;1.05;;
43042;SDS011;28667;50.758;6.096;2022-08-04T13:21:34;1.17;;;0.85;;
43042;SDS011;28667;50.758;6.096;2022-08-04T13:24:10;2.10;;;0.80;;
43042;SDS011;28667;50.758;6.096;2022-08-04T13:26:45;1.05;;;0.82;;
43042;SDS011;28667;50.758;6.096;2022-08-04T13:29:28;1.05;;;0.82;;
43042;SDS011;28667;50.758;6.096;2022-08-04T13:32:06;1.50;;;0.77;;
43042;SDS011;28667;50.758;6.096;2022-08-04T13:34:34;3.13;;;0.90;;
43042;SDS011;28667;50.758;6.096;2022-08-04T13:37:04;1.75;;;1.00;;
43042;SDS011;28667;50.758;6.096;2022-08-04T13:39:32;1.67;;;1.02;;
43042;SDS011;28667;50.758;6.096;2022-08-04T13:42:01;1.98;;;1.02;;
43042;SDS011;28667;50.758;6.096;2022-08-04T13:44:33;5.75;;;1.02;;
43042;SDS011;28667;50.758;6.096;2022-08-04T13:47:05;1.70;;;0.85;;
43042;SDS011;28667;50.758;6.096;2022-08-04T13:49:33;3.05;;;1.17;;
43042;SDS011;28667;50.758;6.096;2022-08-04T13:52:01;1.88;;;1.42;;
43042;SDS011;28667;50.758;6.096;2022-08-04T13:54:35;2.40;;;0.80;;
43042;SDS011;28667;50.758;6.096;2022-08-04T13:59:43;3.35;;;1.33;;
43042;SDS011;28667;50.758;6.096;2022-08-04T14:02:21;5.30;;;1.20;;
43042;SDS011;28667;50.758;6.096;2022-08-04T14:04:56;1.57;;;1.20;;
43042;SDS011;28667;50.758;6.096;2022-08-04T14:10:31;6.53;;;1.33;;
43042;SDS011;28667;50.758;6.096;2022-08-04T14:12:59;2.80;;;1.00;;
43042;SDS011;28667;50.758;6.096;2022-08-04T14:18:16;3.90;;;1.13;;
43042;SDS011;28667;50.758;6.096;2022-08-04T14:23:43;1.08;;;0.90;;
43042;SDS011;28667;50.758;6.096;2022-08-04T14:26:20;1.95;;;1.27;;
43042;SDS011;28667;50.758;6.096;2022-08-04T14:28:50;6.13;;;1.30;;
43042;SDS011;28667;50.758;6.096;2022-08-04T14:31:18;1.60;;;1.08;;
43042;SDS011;28667;50.758;6.096;2022-08-04T14:33:47;4.18;;;1.13;;
43042;SDS011;28667;50.758;6.096;2022-08-04T14:36:14;1.83;;;1.30;;
43042;SDS011;28667;50.758;6.096;2022-08-04T14:41:16;2.17;;;1.10;;
43042;SDS011;28667;50.758;6.096;2022-08-04T14:43:49;1.10;;;0.77;;
43042;SDS011;28667;50.758;6.096;2022-08-04T14:46:17;5.95;;;1.02;;
43042;SDS011;28667;50.758;6.096;2022-08-04T14:51:25;3.72;;;1.02;;
43042;SDS011;28667;50.758;6.096;2022-08-04T14:53:51;5.80;;;1.20;;
43042;SDS011;28667;50.758;6.096;2022-08-04T14:56:17;1.60;;;1.25;;
43042;SDS011;28667;50.758;6.096;2022-08-04T14:58:43;3.38;;;1.60;;
43042;SDS011;28667;50.758;6.096;2022-08-04T15:01:10;4.68;;;1.42;;
43042;SDS011;28667;50.758;6.096;2022-08-04T15:03:40;2.17;;;1.15;;
43042;SDS011;28667;50.758;6.096;2022-08-04T15:06:09;1.98;;;1.23;;
43042;SDS011;28667;50.758;6.096;2022-08-04T15:08:37;3.60;;;1.35;;
43042;SDS011;28667;50.758;6.096;2022-08-04T15:11:03;1.73;;;1.00;;
43042;SDS011;28667;50.758;6.096;2022-08-04T15:13:30;1.10;;;0.95;;
43042;SDS011;28667;50.758;6.096;2022-08-04T15:15:56;0.95;;;0.95;;
43042;SDS011;28667;50.758;6.096;2022-08-04T15:18:23;7.53;;;1.40;;
43042;SDS011;28667;50.758;6.096;2022-08-04T15:20:55;1.00;;;0.90;;
43042;SDS011;28667;50.758;6.096;2022-08-04T15:23:23;3.63;;;1.48;;
43042;SDS011;28667;50.758;6.096;2022-08-04T15:25:51;2.13;;;1.25;;
43042;SDS011;28667;50.758;6.096;2022-08-04T15:28:20;1.45;;;0.93;;
43042;SDS011;28667;50.758;6.096;2022-08-04T15:30:49;1.88;;;1.10;;
43042;SDS011;28667;50.758;6.096;2022-08-04T15:33:18;9.32;;;1.50;;
43042;SDS011;28667;50.758;6.096;2022-08-04T15:36:12;6.78;;;1.98;;
43042;SDS011;28667;50.758;6.096;2022-08-04T15:38:37;1.10;;;1.00;;
43042;SDS011;28667;50.758;6.096;2022-08-04T15:41:08;3.40;;;1.15;;
43042;SDS011;28667;50.758;6.096;2022-08-04T15:49:17;1.20;;;1.10;;
43042;SDS011;28667;50.758;6.096;2022-08-04T15:51:44;5.13;;;1.20;;
43042;SDS011;28667;50.758;6.096;2022-08-04T15:56:44;2.90;;;1.33;;
43042;SDS011;28667;50.758;6.096;2022-08-04T15:59:14;5.00;;;1.65;;
43042;SDS011;28667;50.758;6.096;2022-08-04T16:01:40;2.72;;;1.52;;
43042;SDS011;28667;50.758;6.096;2022-08-04T16:04:23;3.75;;;1.20;;
43042;SDS011;28667;50.758;6.096;2022-08-04T16:06:49;1.75;;;1.17;;
43042;SDS011;28667;50.758;6.096;2022-08-04T16:09:20;4.60;;;1.42;;
43042;SDS011;28667;50.758;6.096;2022-08-04T16:11:48;7.25;;;1.13;;
43042;SDS011;28667;50.758;6.096;2022-08-04T16:14:14;3.22;;;1.17;;
43042;SDS011;28667;50.758;6.096;2022-08-04T16:21:54;1.88;;;1.20;;
43042;SDS011;28667;50.758;6.096;2022-08-04T16:27:01;2.15;;;1.30;;
43042;SDS011;28667;50.758;6.096;2022-08-04T16:34:36;2.75;;;1.40;;
43042;SDS011;28667;50.758;6.096;2022-08-04T16:37:04;4.40;;;1.30;;
43042;SDS011;28667;50.758;6.096;2022-08-04T16:39:32;3.10;;;1.40;;
43042;SDS011;28667;50.758;6.096;2022-08-04T16:41:58;1.33;;;1.00;;
43042;SDS011;28667;50.758;6.096;2022-08-04T16:44:28;2.38;;;1.10;;
43042;SDS011;28667;50.758;6.096;2022-08-04T16:46:59;3.60;;;1.13;;
43042;SDS011;28667;50.758;6.096;2022-08-04T16:49:26;4.65;;;0.93;;
43042;SDS011;28667;50.758;6.096;2022-08-04T16:51:54;4.43;;;1.00;;
43042;SDS011;28667;50.758;6.096;2022-08-04T16:54:32;2.00;;;1.25;;
43042;SDS011;28667;50.758;6.096;2022-08-04T16:57:07;7.60;;;1.40;;
43042;SDS011;28667;50.758;6.096;2022-08-04T16:59:34;7.60;;;1.63;;
43042;SDS011;28667;50.758;6.096;2022-08-04T17:02:02;3.97;;;1.23;;
43042;SDS011;28667;50.758;6.096;2022-08-04T17:04:29;2.88;;;1.20;;
43042;SDS011;28667;50.758;6.096;2022-08-04T17:06:58;2.22;;;1.58;;
43042;SDS011;28667;50.758;6.096;2022-08-04T17:09:26;5.03;;;1.20;;
43042;SDS011;28667;50.758;6.096;2022-08-04T17:11:52;5.03;;;1.33;;
43042;SDS011;28667;50.758;6.096;2022-08-04T17:14:22;2.53;;;1.13;;
43042;SDS011;28667;50.758;6.096;2022-08-04T17:16:49;2.10;;;1.35;;
43042;SDS011;28667;50.758;6.096;2022-08-04T17:19:15;2.25;;;1.35;;
43042;SDS011;28667;50.758;6.096;2022-08-04T17:21:42;4.50;;;1.33;;
43042;SDS011;28667;50.758;6.096;2022-08-04T17:24:08;3.00;;;1.83;;
43042;SDS011;28667;50.758;6.096;2022-08-04T17:26:35;3.65;;;1.38;;
43042;SDS011;28667;50.758;6.096;2022-08-04T17:29:03;4.22;;;1.73;;
43042;SDS011;28667;50.758;6.096;2022-08-04T17:31:31;7.18;;;1.70;;
43042;SDS011;28667;50.758;6.096;2022-08-04T17:33:59;3.13;;;1.50;;
43042;SDS011;28667;50.758;6.096;2022-08-04T17:36:28;1.35;;;1.15;;
43042;SDS011;28667;50.758;6.096;2022-08-04T17:38:56;1.95;;;1.42;;
43042;SDS011;28667;50.758;6.096;2022-08-04T17:41:28;7.22;;;1.30;;
43042;SDS011;28667;50.758;6.096;2022-08-04T17:43:56;3.05;;;1.40;;
43042;SDS011;28667;50.758;6.096;2022-08-04T17:56:54;2.70;;;1.10;;
43042;SDS011;28667;50.758;6.096;2022-08-04T18:09:37;6.50;;;1.40;;
43042;SDS011;28667;50.758;6.096;2022-08-04T18:12:04;6.20;;;1.40;;
43042;SDS011;28667;50.758;6.096;2022-08-04T18:14:39;4.90;;;1.83;;
43042;SDS011;28667;50.758;6.096;2022-08-04T18:20:05;2.47;;;1.50;;
43042;SDS011;28667;50.758;6.096;2022-08-04T18:22:33;3.35;;;1.52;;
43042;SDS011;28667;50.758;6.096;2022-08-04T18:25:00;2.92;;;1.83;;
43042;SDS011;28667;50.758;6.096;2022-08-04T18:27:27;3.55;;;1.70;;
43042;SDS011;28667;50.758;6.096;2022-08-04T18:29:55;4.90;;;1.83;;
43042;SDS011;28667;50.758;6.096;2022-08-04T18:32:22;4.80;;;1.75;;
43042;SDS011;28667;50.758;6.096;2022-08-04T18:34:50;4.53;;;1.50;;
43042;SDS011;28667;50.758;6.096;2022-08-04T18:37:18;3.30;;;1.67;;
43042;SDS011;28667;50.758;6.096;2022-08-04T18:39:44;2.90;;;1.70;;
43042;SDS011;28667;50.758;6.096;2022-08-04T18:42:11;6.05;;;2.00;;
43042;SDS011;28667;50.758;6.096;2022-08-04T18:44:37;5.55;;;2.45;;
43042;SDS011;28667;50.758;6.096;2022-08-04T18:47:03;2.13;;;1.05;;
43042;SDS011;28667;50.758;6.096;2022-08-04T18:49:30;10.18;;;2.20;;
43042;SDS011;28667;50.758;6.096;2022-08-04T18:51:56;5.03;;;2.22;;
43042;SDS011;28667;50.758;6.096;2022-08-04T18:54:22;5.20;;;1.83;;
43042;SDS011;28667;50.758;6.096;2022-08-04T18:56:50;4.25;;;1.77;;
43042;SDS011;28667;50.758;6.096;2022-08-04T18:59:17;6.15;;;1.95;;
43042;SDS011;28667;50.758;6.096;2022-08-04T19:01:44;3.90;;;2.70;;
43042;SDS011;28667;50.758;6.096;2022-08-04T19:04:10;1.70;;;1.60;;
43042;SDS011;28667;50.758;6.096;2022-08-04T19:06:36;7.63;;;2.55;;
43042;SDS011;28667;50.758;6.096;2022-08-04T19:09:03;6.00;;;2.45;;
43042;SDS011;28667;50.758;6.096;2022-08-04T19:11:30;2.80;;;1.58;;
43042;SDS011;28667;50.758;6.096;2022-08-04T19:14:00;3.50;;;2.00;;
43042;SDS011;28667;50.758;6.096;2022-08-04T19:16:27;1.98;;;1.60;;
43042;SDS011;28667;50.758;6.096;2022-08-04T19:18:55;4.78;;;2.05;;
43042;SDS011;28667;50.758;6.096;2022-08-04T19:21:23;1.67;;;1.33;;
43042;SDS011;28667;50.758;6.096;2022-08-04T19:23:49;8.48;;;1.83;;
43042;SDS011;28667;50.758;6.096;2022-08-04T19:26:15;4.32;;;1.88;;
43042;SDS011;28667;50.758;6.096;2022-08-04T19:28:41;2.63;;;1.10;;
43042;SDS011;28667;50.758;6.096;2022-08-04T19:31:08;5.18;;;1.45;;
43042;SDS011;28667;50.758;6.096;2022-08-04T19:33:34;4.88;;;1.70;;
43042;SDS011;28667;50.758;6.096;2022-08-04T19:36:01;5.30;;;2.15;;
43042;SDS011;28667;50.758;6.096;2022-08-04T19:38:28;5.05;;;1.95;;
43042;SDS011;28667;50.758;6.096;2022-08-04T19:40:54;2.28;;;1.50;;
43042;SDS011;28667;50.758;6.096;2022-08-04T19:43:20;3.60;;;1.77;;
43042;SDS011;28667;50.758;6.096;2022-08-04T19:45:47;1.48;;;1.15;;
43042;SDS011;28667;50.758;6.096;2022-08-04T19:48:13;4.25;;;1.58;;
43042;SDS011;28667;50.758;6.096;2022-08-04T19:50:39;2.70;;;1.67;;
43042;SDS011;28667;50.758;6.096;2022-08-04T19:53:06;2.08;;;1.77;;